sensor_id;sensor_type;location;lat;lon;timestamp;pressure;altitude;pressure_sealevel;temperature;humidity
61710;BME280;47633;51.494;5.386;2023-06-14T00:01:24;101363.91;;;25.52;35.11
61710;BME280;47633;51.494;5.386;2023-06-14T00:03:50;101366.59;;;25.52;34.73
61710;BME280;47633;51.494;5.386;2023-06-14T00:06:15;101366.75;;;25.50;35.09
61710;BME280;47633;51.494;5.386;2023-06-14T00:08:40;101367.56;;;25.51;34.83
61710;BME280;47633;51.494;5.386;2023-06-14T00:11:06;101365.72;;;25.51;34.77
61710;BME280;47633;51.494;5.386;2023-06-14T00:13:32;101378.91;;;25.53;34.96
61710;BME280;47633;51.494;5.386;2023-06-14T00:15:58;101373.72;;;25.51;35.31
61710;BME280;47633;51.494;5.386;2023-06-14T00:18:23;101365.06;;;25.49;35.43
61710;BME280;47633;51.494;5.386;2023-06-14T00:20:49;101374.75;;;25.50;34.98
61710;BME280;47633;51.494;5.386;2023-06-14T00:23:15;101374.91;;;25.49;35.13
61710;BME280;47633;51.494;5.386;2023-06-14T00:25:41;101380.25;;;25.49;35.14
61710;BME280;47633;51.494;5.386;2023-06-14T00:28:06;101386.25;;;25.51;35.34
61710;BME280;47633;51.494;5.386;2023-06-14T00:30:32;101380.25;;;25.49;35.04
61710;BME280;47633;51.494;5.386;2023-06-14T00:32:57;101375.72;;;25.49;34.74
61710;BME280;47633;51.494;5.386;2023-06-14T00:35:23;101381.22;;;25.48;34.79
61710;BME280;47633;51.494;5.386;2023-06-14T00:37:48;101385.75;;;25.47;34.87
61710;BME280;47633;51.494;5.386;2023-06-14T00:40:14;101375.22;;;25.46;35.08
61710;BME280;47633;51.494;5.386;2023-06-14T00:42:39;101371.91;;;25.44;35.12
61710;BME280;47633;51.494;5.386;2023-06-14T00:45:05;101375.53;;;25.43;34.93
61710;BME280;47633;51.494;5.386;2023-06-14T00:47:30;101375.53;;;25.43;34.57
61710;BME280;47633;51.494;5.386;2023-06-14T00:49:56;101380.56;;;25.46;34.56
61710;BME280;47633;51.494;5.386;2023-06-14T00:52:22;101376.53;;;25.42;34.91
61710;BME280;47633;51.494;5.386;2023-06-14T00:54:49;101378.22;;;25.43;34.96
61710;BME280;47633;51.494;5.386;2023-06-14T00:57:15;101371.34;;;25.40;34.59
61710;BME280;47633;51.494;5.386;2023-06-14T00:59:45;101380.38;;;25.39;34.89
61710;BME280;47633;51.494;5.386;2023-06-14T01:02:11;101379.34;;;25.40;34.60
61710;BME280;47633;51.494;5.386;2023-06-14T01:04:38;101380.38;;;25.39;34.66
61710;BME280;47633;51.494;5.386;2023-06-14T01:07:40;101383.03;;;25.39;34.28
61710;BME280;47633;51.494;5.386;2023-06-14T01:13:05;101382.03;;;25.40;34.77
61710;BME280;47633;51.494;5.386;2023-06-14T01:15:31;101382.03;;;25.40;34.59
61710;BME280;47633;51.494;5.386;2023-06-14T01:17:57;101377.16;;;25.35;34.54
61710;BME280;47633;51.494;5.386;2023-06-14T01:20:29;101381.34;;;25.38;34.30
61710;BME280;47633;51.494;5.386;2023-06-14T01:22:54;101390.34;;;25.37;34.13
61710;BME280;47633;51.494;5.386;2023-06-14T01:25:20;101382.50;;;25.35;34.10
61710;BME280;47633;51.494;5.386;2023-06-14T01:27:53;101379.84;;;25.35;34.54
61710;BME280;47633;51.494;5.386;2023-06-14T01:30:21;101386.03;;;25.36;34.15
61710;BME280;47633;51.494;5.386;2023-06-14T01:32:49;101382.50;;;25.35;34.19
61710;BME280;47633;51.494;5.386;2023-06-14T01:35:15;101374.31;;;25.29;33.88
61710;BME280;47633;51.494;5.386;2023-06-14T01:37:41;101385.50;;;25.32;34.31
61710;BME280;47633;51.494;5.386;2023-06-14T01:40:09;101377.84;;;25.29;33.83
61710;BME280;47633;51.494;5.386;2023-06-14T01:42:37;101378.50;;;25.31;34.42
61710;BME280;47633;51.494;5.386;2023-06-14T01:45:04;101387.31;;;25.32;33.74
61710;BME280;47633;51.494;5.386;2023-06-14T01:47:31;101384.66;;;25.32;33.87
61710;BME280;47633;51.494;5.386;2023-06-14T01:49:57;101380.16;;;25.32;34.05
61710;BME280;47633;51.494;5.386;2023-06-14T01:52:22;101376.81;;;25.30;33.61
61710;BME280;47633;51.494;5.386;2023-06-14T01:54:49;101376.00;;;25.30;34.22
61710;BME280;47633;51.494;5.386;2023-06-14T01:57:15;101373.31;;;25.30;34.02
61710;BME280;47633;51.494;5.386;2023-06-14T01:59:40;101368.16;;;25.28;34.05
61710;BME280;47633;51.494;5.386;2023-06-14T02:02:05;101378.00;;;25.28;33.53
61710;BME280;47633;51.494;5.386;2023-06-14T02:04:31;101382.44;;;25.27;33.41
61710;BME280;47633;51.494;5.386;2023-06-14T02:06:56;101380.94;;;25.25;33.77
61710;BME280;47633;51.494;5.386;2023-06-14T02:09:21;101384.28;;;25.27;33.52
61710;BME280;47633;51.494;5.386;2023-06-14T02:11:46;101375.59;;;25.25;33.90
61710;BME280;47633;51.494;5.386;2023-06-14T02:14:12;101375.59;;;25.25;33.73
61710;BME280;47633;51.494;5.386;2023-06-14T02:16:37;101377.41;;;25.24;33.46
61710;BME280;47633;51.494;5.386;2023-06-14T02:19:04;101374.09;;;25.22;33.54
61710;BME280;47633;51.494;5.386;2023-06-14T02:21:29;101381.25;;;25.22;33.54
61710;BME280;47633;51.494;5.386;2023-06-14T02:23:55;101381.09;;;25.23;33.27
61710;BME280;47633;51.494;5.386;2023-06-14T02:26:21;101379.41;;;25.22;33.28
61710;BME280;47633;51.494;5.386;2023-06-14T02:28:47;101384.91;;;25.21;33.22
61710;BME280;47633;51.494;5.386;2023-06-14T02:31:13;101384.09;;;25.20;33.43
61710;BME280;47633;51.494;5.386;2023-06-14T02:33:38;101378.91;;;25.19;33.70
61710;BME280;47633;51.494;5.386;2023-06-14T02:36:03;101385.06;;;25.19;33.65
61710;BME280;47633;51.494;5.386;2023-06-14T02:38:28;101393.22;;;25.17;33.11
61710;BME280;47633;51.494;5.386;2023-06-14T02:40:54;101382.56;;;25.17;33.27
61710;BME280;47633;51.494;5.386;2023-06-14T02:43:19;101401.06;;;25.19;33.15
61710;BME280;47633;51.494;5.386;2023-06-14T02:45:45;101395.91;;;25.17;33.57
61710;BME280;47633;51.494;5.386;2023-06-14T02:48:10;101392.56;;;25.15;33.07
61710;BME280;47633;51.494;5.386;2023-06-14T02:50:36;101390.06;;;25.14;33.14
61710;BME280;47633;51.494;5.386;2023-06-14T02:53:01;101395.38;;;25.14;33.34
61710;BME280;47633;51.494;5.386;2023-06-14T02:55:28;101397.03;;;25.15;33.57
61710;BME280;47633;51.494;5.386;2023-06-14T02:57:53;101384.88;;;25.12;33.00
61710;BME280;47633;51.494;5.386;2023-06-14T03:00:19;101391.03;;;25.13;33.52
61710;BME280;47633;51.494;5.386;2023-06-14T03:02:44;101392.88;;;25.12;33.54
61710;BME280;47633;51.494;5.386;2023-06-14T03:05:10;101390.22;;;25.12;32.99
61710;BME280;47633;51.494;5.386;2023-06-14T03:07:36;101393.84;;;25.11;33.50
61710;BME280;47633;51.494;5.386;2023-06-14T03:10:09;101397.53;;;25.10;32.95
61710;BME280;47633;51.494;5.386;2023-06-14T03:12:35;101397.69;;;25.09;33.08
61710;BME280;47633;51.494;5.386;2023-06-14T03:15:01;101398.69;;;25.08;33.32
61710;BME280;47633;51.494;5.386;2023-06-14T03:17:29;101396.16;;;25.06;32.92
61710;BME280;47633;51.494;5.386;2023-06-14T03:19:58;101405.84;;;25.07;33.29
61710;BME280;47633;51.494;5.386;2023-06-14T03:22:23;101407.81;;;25.05;32.96
61710;BME280;47633;51.494;5.386;2023-06-14T03:24:50;101410.31;;;25.07;33.47
61710;BME280;47633;51.494;5.386;2023-06-14T03:27:17;101408.81;;;25.04;33.07
61710;BME280;47633;51.494;5.386;2023-06-14T03:29:42;101407.81;;;25.05;33.21
61710;BME280;47633;51.494;5.386;2023-06-14T03:32:08;101417.66;;;25.05;33.17
61710;BME280;47633;51.494;5.386;2023-06-14T03:34:33;101409.66;;;25.05;33.35
61710;BME280;47633;51.494;5.386;2023-06-14T03:36:59;101410.78;;;25.02;33.05
61710;BME280;47633;51.494;5.386;2023-06-14T03:39:24;101414.31;;;25.03;33.28
61710;BME280;47633;51.494;5.386;2023-06-14T03:41:49;101415.97;;;25.04;32.73
61710;BME280;47633;51.494;5.386;2023-06-14T03:44:17;101414.31;;;25.03;33.37
61710;BME280;47633;51.494;5.386;2023-06-14T03:46:43;101416.28;;;25.01;33.24
61710;BME280;47633;51.494;5.386;2023-06-14T03:49:08;101419.97;;;24.99;33.39
61710;BME280;47633;51.494;5.386;2023-06-14T03:51:34;101416.44;;;24.99;33.13
61710;BME280;47633;51.494;5.386;2023-06-14T03:54:00;101419.81;;;25.01;32.97
61710;BME280;47633;51.494;5.386;2023-06-14T03:56:26;101418.28;;;24.98;32.93
61710;BME280;47633;51.494;5.386;2023-06-14T03:58:52;101427.81;;;25.01;33.33
61710;BME280;47633;51.494;5.386;2023-06-14T04:01:17;101429.63;;;25.01;32.93
61710;BME280;47633;51.494;5.386;2023-06-14T04:03:42;101428.78;;;25.00;33.21
61710;BME280;47633;51.494;5.386;2023-06-14T04:06:08;101436.13;;;24.98;33.45
61710;BME280;47633;51.494;5.386;2023-06-14T04:08:33;101429.91;;;24.97;32.99
61710;BME280;47633;51.494;5.386;2023-06-14T04:11:00;101431.75;;;24.97;33.39
61710;BME280;47633;51.494;5.386;2023-06-14T04:13:25;101438.78;;;24.98;33.33
61710;BME280;47633;51.494;5.386;2023-06-14T04:15:51;101431.59;;;24.98;32.98
61710;BME280;47633;51.494;5.386;2023-06-14T04:18:16;101439.91;;;24.95;32.96
61710;BME280;47633;51.494;5.386;2023-06-14T04:20:41;101435.25;;;24.97;33.09
61710;BME280;47633;51.494;5.386;2023-06-14T04:23:14;101440.06;;;24.94;33.40
61710;BME280;47633;51.494;5.386;2023-06-14T04:25:40;101445.09;;;24.97;32.86
61710;BME280;47633;51.494;5.386;2023-06-14T04:28:10;101433.91;;;24.93;33.39
61710;BME280;47633;51.494;5.386;2023-06-14T04:30:36;101434.59;;;24.95;33.07
61710;BME280;47633;51.494;5.386;2023-06-14T04:33:04;101436.88;;;24.90;33.37
61710;BME280;47633;51.494;5.386;2023-06-14T04:35:31;101444.44;;;24.95;33.13
61710;BME280;47633;51.494;5.386;2023-06-14T04:37:57;101442.75;;;24.94;32.90
61710;BME280;47633;51.494;5.386;2023-06-14T04:40:23;101437.72;;;24.91;33.02
61710;BME280;47633;51.494;5.386;2023-06-14T04:42:48;101441.91;;;24.93;33.45
61710;BME280;47633;51.494;5.386;2023-06-14T04:45:16;101440.38;;;24.91;33.00
61710;BME280;47633;51.494;5.386;2023-06-14T04:47:41;101447.41;;;24.92;33.32
61710;BME280;47633;51.494;5.386;2023-06-14T04:50:07;101452.72;;;24.92;33.27
61710;BME280;47633;51.494;5.386;2023-06-14T04:52:32;101446.56;;;24.91;32.91
61710;BME280;47633;51.494;5.386;2023-06-14T04:55:00;101452.72;;;24.92;33.34
61710;BME280;47633;51.494;5.386;2023-06-14T04:57:27;101451.91;;;24.91;33.42
61710;BME280;47633;51.494;5.386;2023-06-14T04:59:52;101451.03;;;24.91;33.33
61710;BME280;47633;51.494;5.386;2023-06-14T05:02:22;101451.91;;;24.91;33.10
61710;BME280;47633;51.494;5.386;2023-06-14T05:04:48;101462.56;;;24.91;33.09
61710;BME280;47633;51.494;5.386;2023-06-14T05:07:13;101454.56;;;24.91;33.47
61710;BME280;47633;51.494;5.386;2023-06-14T05:09:39;101457.22;;;24.91;33.09
61710;BME280;47633;51.494;5.386;2023-06-14T05:12:05;101455.41;;;24.92;33.21
61710;BME280;47633;51.494;5.386;2023-06-14T05:14:32;101460.88;;;24.90;33.56
61710;BME280;47633;51.494;5.386;2023-06-14T05:16:58;101460.72;;;24.92;33.26
61710;BME280;47633;51.494;5.386;2023-06-14T05:19:23;101465.06;;;24.93;33.52
61710;BME280;47633;51.494;5.386;2023-06-14T05:21:48;101465.22;;;24.91;33.30
61710;BME280;47633;51.494;5.386;2023-06-14T05:24:15;101468.56;;;24.93;33.52
61710;BME280;47633;51.494;5.386;2023-06-14T05:26:42;101469.41;;;24.94;33.17
61710;BME280;47633;51.494;5.386;2023-06-14T05:29:07;101458.06;;;24.92;33.72
61710;BME280;47633;51.494;5.386;2023-06-14T05:31:32;101464.06;;;24.94;33.53
61710;BME280;47633;51.494;5.386;2023-06-14T05:33:58;101465.75;;;24.95;33.38
61710;BME280;47633;51.494;5.386;2023-06-14T05:36:23;101470.94;;;24.96;33.38
61710;BME280;47633;51.494;5.386;2023-06-14T05:38:49;101469.25;;;24.95;33.72
61710;BME280;47633;51.494;5.386;2023-06-14T05:41:15;101471.09;;;24.95;33.26
61710;BME280;47633;51.494;5.386;2023-06-14T05:43:41;101475.59;;;24.94;33.33
61710;BME280;47633;51.494;5.386;2023-06-14T05:46:06;101478.78;;;24.98;33.30
61710;BME280;47633;51.494;5.386;2023-06-14T05:48:31;101478.78;;;24.98;33.44
61710;BME280;47633;51.494;5.386;2023-06-14T05:50:57;101477.75;;;24.99;33.29
61710;BME280;47633;51.494;5.386;2023-06-14T05:53:22;101484.94;;;24.98;33.52
61710;BME280;47633;51.494;5.386;2023-06-14T05:55:48;101482.94;;;25.01;33.74
61710;BME280;47633;51.494;5.386;2023-06-14T05:58:14;101481.75;;;24.95;32.75
61710;BME280;47633;51.494;5.386;2023-06-14T06:00:39;101483.34;;;24.88;31.65
61710;BME280;47633;51.494;5.386;2023-06-14T06:03:05;101493.78;;;24.81;31.74
61710;BME280;47633;51.494;5.386;2023-06-14T06:05:35;101489.22;;;24.73;31.53
61710;BME280;47633;51.494;5.386;2023-06-14T06:08:00;101494.63;;;24.63;31.59
61710;BME280;47633;51.494;5.386;2023-06-14T06:10:26;101493.69;;;24.55;31.73
61710;BME280;47633;51.494;5.386;2023-06-14T06:12:51;101500.47;;;24.49;31.86
61710;BME280;47633;51.494;5.386;2023-06-14T06:15:19;101501.78;;;24.45;32.21
61710;BME280;47633;51.494;5.386;2023-06-14T06:17:44;101504.72;;;24.42;31.97
61710;BME280;47633;51.494;5.386;2023-06-14T06:20:10;101502.66;;;24.36;32.35
61710;BME280;47633;51.494;5.386;2023-06-14T06:22:36;101507.28;;;24.34;32.32
61710;BME280;47633;51.494;5.386;2023-06-14T06:25:02;101511.25;;;24.30;31.93
61710;BME280;47633;51.494;5.386;2023-06-14T06:27:28;101514.88;;;24.29;32.21
61710;BME280;47633;51.494;5.386;2023-06-14T06:29:53;101516.03;;;24.26;32.38
61710;BME280;47633;51.494;5.386;2023-06-14T06:32:18;101520.66;;;24.24;32.73
61710;BME280;47633;51.494;5.386;2023-06-14T06:34:43;101516.34;;;24.23;32.23
61710;BME280;47633;51.494;5.386;2023-06-14T06:37:09;101526.84;;;24.24;32.23
61710;BME280;47633;51.494;5.386;2023-06-14T06:39:34;101520.66;;;24.24;32.50
61710;BME280;47633;51.494;5.386;2023-06-14T06:42:00;101520.81;;;24.22;32.41
61710;BME280;47633;51.494;5.386;2023-06-14T06:44:25;101532.31;;;24.23;32.12
61710;BME280;47633;51.494;5.386;2023-06-14T06:46:50;101532.16;;;24.24;32.70
61710;BME280;47633;51.494;5.386;2023-06-14T06:49:15;101526.84;;;24.24;32.37
61710;BME280;47633;51.494;5.386;2023-06-14T06:51:41;101534.97;;;24.23;32.21
61710;BME280;47633;51.494;5.386;2023-06-14T06:54:08;101535.81;;;24.23;32.52
61710;BME280;47633;51.494;5.386;2023-06-14T06:56:34;101533.97;;;24.24;32.35
61710;BME280;47633;51.494;5.386;2023-06-14T06:58:59;101547.16;;;24.25;32.48
61710;BME280;47633;51.494;5.386;2023-06-14T07:01:25;101546.16;;;24.26;32.38
61710;BME280;47633;51.494;5.386;2023-06-14T07:03:51;101546.31;;;24.25;32.96
61710;BME280;47633;51.494;5.386;2023-06-14T07:06:17;101551.50;;;24.26;32.58
61710;BME280;47633;51.494;5.386;2023-06-14T07:08:44;101543.94;;;24.22;32.93
61710;BME280;47633;51.494;5.386;2023-06-14T07:11:09;101550.81;;;24.24;32.81
61710;BME280;47633;51.494;5.386;2023-06-14T07:13:35;101553.00;;;24.29;32.58
61710;BME280;47633;51.494;5.386;2023-06-14T07:16:00;101550.41;;;24.19;32.54
61710;BME280;47633;51.494;5.386;2023-06-14T07:18:26;101548.88;;;24.17;33.08
61710;BME280;47633;51.494;5.386;2023-06-14T07:20:52;101557.84;;;24.16;33.64
61710;BME280;47633;51.494;5.386;2023-06-14T07:23:18;101552.38;;;24.17;33.49
61710;BME280;47633;51.494;5.386;2023-06-14T07:25:43;101555.56;;;24.21;33.54
61710;BME280;47633;51.494;5.386;2023-06-14T07:28:08;101550.66;;;24.26;33.21
61710;BME280;47633;51.494;5.386;2023-06-14T07:30:35;101559.03;;;24.31;33.27
61710;BME280;47633;51.494;5.386;2023-06-14T07:33:00;101562.91;;;24.37;33.19
61710;BME280;47633;51.494;5.386;2023-06-14T07:35:26;101569.63;;;24.41;33.53
61710;BME280;47633;51.494;5.386;2023-06-14T07:37:51;101574.69;;;24.44;33.66
61710;BME280;47633;51.494;5.386;2023-06-14T07:40:16;101572.38;;;24.49;33.83
61710;BME280;47633;51.494;5.386;2023-06-14T07:42:42;101566.91;;;24.51;33.29
61710;BME280;47633;51.494;5.386;2023-06-14T07:45:07;101572.63;;;24.56;33.29
61710;BME280;47633;51.494;5.386;2023-06-14T07:47:33;101570.69;;;24.58;33.28
61710;BME280;47633;51.494;5.386;2023-06-14T07:49:58;101580.91;;;24.62;33.54
61710;BME280;47633;51.494;5.386;2023-06-14T07:52:23;101587.75;;;24.65;33.50
61710;BME280;47633;51.494;5.386;2023-06-14T07:54:49;101584.94;;;24.67;33.14
61710;BME280;47633;51.494;5.386;2023-06-14T07:57:14;101582.28;;;24.67;33.23
61710;BME280;47633;51.494;5.386;2023-06-14T07:59:39;101581.59;;;24.65;32.69
61710;BME280;47633;51.494;5.386;2023-06-14T08:02:06;101586.06;;;24.64;32.42
61710;BME280;47633;51.494;5.386;2023-06-14T08:04:31;101586.25;;;24.62;32.98
61710;BME280;47633;51.494;5.386;2023-06-14T08:06:57;101591.88;;;24.59;33.47
61710;BME280;47633;51.494;5.386;2023-06-14T08:09:22;101597.72;;;24.63;33.23
61710;BME280;47633;51.494;5.386;2023-06-14T08:11:48;101601.91;;;24.66;33.31
61710;BME280;47633;51.494;5.386;2023-06-14T08:14:13;101598.25;;;24.67;33.09
61710;BME280;47633;51.494;5.386;2023-06-14T08:16:38;101590.50;;;24.73;34.13
61710;BME280;47633;51.494;5.386;2023-06-14T08:19:03;101593.38;;;24.80;34.73
61710;BME280;47633;51.494;5.386;2023-06-14T08:21:29;101594.25;;;24.80;33.87
61710;BME280;47633;51.494;5.386;2023-06-14T08:23:57;101598.72;;;24.80;33.84
61710;BME280;47633;51.494;5.386;2023-06-14T08:26:22;101591.59;;;24.80;34.46
61710;BME280;47633;51.494;5.386;2023-06-14T08:28:48;101585.25;;;24.81;34.91
61710;BME280;47633;51.494;5.386;2023-06-14T08:31:13;101589.59;;;24.83;34.56
61710;BME280;47633;51.494;5.386;2023-06-14T08:33:39;101586.25;;;24.80;34.95
61710;BME280;47633;51.494;5.386;2023-06-14T08:36:08;101587.91;;;24.81;35.69
61710;BME280;47633;51.494;5.386;2023-06-14T08:38:33;101586.63;;;24.86;36.21
61710;BME280;47633;51.494;5.386;2023-06-14T08:41:00;101585.66;;;24.87;36.27
61710;BME280;47633;51.494;5.386;2023-06-14T08:43:26;101600.34;;;24.91;36.43
61710;BME280;47633;51.494;5.386;2023-06-14T08:45:56;101581.81;;;24.89;37.24
61710;BME280;47633;51.494;5.386;2023-06-14T08:48:26;101592.19;;;24.92;36.71
61710;BME280;47633;51.494;5.386;2023-06-14T08:50:54;101586.72;;;24.94;36.70
61710;BME280;47633;51.494;5.386;2023-06-14T08:53:27;101583.88;;;24.95;36.69
61710;BME280;47633;51.494;5.386;2023-06-14T08:55:54;101583.06;;;24.95;36.58
61710;BME280;47633;51.494;5.386;2023-06-14T08:58:20;101590.16;;;25.04;36.06
61710;BME280;47633;51.494;5.386;2023-06-14T09:00:49;101589.53;;;25.10;35.20
61710;BME280;47633;51.494;5.386;2023-06-14T09:03:18;101592.59;;;25.15;34.96
61710;BME280;47633;51.494;5.386;2023-06-14T09:05:45;101591.56;;;25.16;35.37
61710;BME280;47633;51.494;5.386;2023-06-14T09:08:12;101594.94;;;25.19;35.75
61710;BME280;47633;51.494;5.386;2023-06-14T09:10:39;101590.28;;;25.21;35.76
61710;BME280;47633;51.494;5.386;2023-06-14T09:13:05;101591.81;;;25.23;35.33
61710;BME280;47633;51.494;5.386;2023-06-14T09:15:31;101584.78;;;25.22;35.54
61710;BME280;47633;51.494;5.386;2023-06-14T09:17:57;101588.84;;;25.26;35.82
61710;BME280;47633;51.494;5.386;2023-06-14T09:20:24;101602.88;;;25.28;35.77
61710;BME280;47633;51.494;5.386;2023-06-14T09:22:49;101581.66;;;25.27;34.37
61710;BME280;47633;51.494;5.386;2023-06-14T09:25:14;101587.56;;;25.30;34.40
61710;BME280;47633;51.494;5.386;2023-06-14T09:27:41;101594.44;;;25.33;35.22
61710;BME280;47633;51.494;5.386;2023-06-14T09:30:09;101599.47;;;25.36;34.97
61710;BME280;47633;51.494;5.386;2023-06-14T09:32:39;101595.09;;;25.35;34.99
61710;BME280;47633;51.494;5.386;2023-06-14T09:35:07;101596.63;;;25.38;35.52
61710;BME280;47633;51.494;5.386;2023-06-14T09:37:34;101591.97;;;25.40;35.24
61710;BME280;47633;51.494;5.386;2023-06-14T09:40:00;101600.66;;;25.42;35.10
61710;BME280;47633;51.494;5.386;2023-06-14T09:42:25;101595.16;;;25.43;35.53
61710;BME280;47633;51.494;5.386;2023-06-14T09:44:53;101609.19;;;25.45;35.49
61710;BME280;47633;51.494;5.386;2023-06-14T09:47:24;101614.38;;;25.47;35.30
61710;BME280;47633;51.494;5.386;2023-06-14T09:49:50;101607.22;;;25.47;35.41
61710;BME280;47633;51.494;5.386;2023-06-14T09:52:17;101613.69;;;25.45;35.22
61710;BME280;47633;51.494;5.386;2023-06-14T09:54:45;101605.38;;;25.48;34.55
61710;BME280;47633;51.494;5.386;2023-06-14T09:57:21;101606.38;;;25.47;34.96
61710;BME280;47633;51.494;5.386;2023-06-14T09:59:47;101599.06;;;25.49;35.09
61710;BME280;47633;51.494;5.386;2023-06-14T10:04:50;101600.84;;;25.48;35.17
61710;BME280;47633;51.494;5.386;2023-06-14T10:07:19;101603.63;;;25.57;34.79
61710;BME280;47633;51.494;5.386;2023-06-14T10:09:46;101601.09;;;25.55;34.97
61710;BME280;47633;51.494;5.386;2023-06-14T10:12:16;101585.09;;;25.55;35.08
61710;BME280;47633;51.494;5.386;2023-06-14T10:14:48;101586.75;;;25.56;34.97
61710;BME280;47633;51.494;5.386;2023-06-14T10:17:21;101593.56;;;25.50;34.84
61710;BME280;47633;51.494;5.386;2023-06-14T10:19:58;101581.34;;;25.48;34.88
61710;BME280;47633;51.494;5.386;2023-06-14T10:22:38;101576.84;;;25.48;34.75
61710;BME280;47633;51.494;5.386;2023-06-14T10:25:12;101589.19;;;25.49;35.11
61710;BME280;47633;51.494;5.386;2023-06-14T10:27:38;101579.19;;;25.51;35.35
61710;BME280;47633;51.494;5.386;2023-06-14T10:30:06;101585.25;;;25.53;34.96
61710;BME280;47633;51.494;5.386;2023-06-14T10:32:32;101592.78;;;25.58;35.28
61710;BME280;47633;51.494;5.386;2023-06-14T10:35:06;101591.78;;;25.59;35.10
61710;BME280;47633;51.494;5.386;2023-06-14T10:37:32;101590.13;;;25.58;34.63
61710;BME280;47633;51.494;5.386;2023-06-14T10:39:57;101594.13;;;25.62;34.87
61710;BME280;47633;51.494;5.386;2023-06-14T10:42:33;101585.13;;;25.63;34.58
61710;BME280;47633;51.494;5.386;2023-06-14T10:44:58;101595.34;;;25.68;34.70
61710;BME280;47633;51.494;5.386;2023-06-14T10:47:29;101590.00;;;25.68;34.87
61710;BME280;47633;51.494;5.386;2023-06-14T10:49:57;101598.84;;;25.68;34.58
61710;BME280;47633;51.494;5.386;2023-06-14T10:52:26;101589.00;;;25.69;34.79
61710;BME280;47633;51.494;5.386;2023-06-14T10:55:15;101591.00;;;25.67;34.67
61710;BME280;47633;51.494;5.386;2023-06-14T10:57:53;101593.81;;;25.65;34.67
61710;BME280;47633;51.494;5.386;2023-06-14T11:00:25;101589.97;;;25.60;34.72
61710;BME280;47633;51.494;5.386;2023-06-14T11:10:44;101595.19;;;25.69;34.66
61710;BME280;47633;51.494;5.386;2023-06-14T11:13:13;101586.47;;;25.67;34.87
61710;BME280;47633;51.494;5.386;2023-06-14T11:15:44;101593.00;;;25.65;34.85
61710;BME280;47633;51.494;5.386;2023-06-14T11:18:11;101593.66;;;25.67;34.25
61710;BME280;47633;51.494;5.386;2023-06-14T11:20:37;101574.97;;;25.67;34.49
61710;BME280;47633;51.494;5.386;2023-06-14T11:23:03;101580.16;;;25.68;34.70
61710;BME280;47633;51.494;5.386;2023-06-14T11:25:29;101583.50;;;25.70;34.53
61710;BME280;47633;51.494;5.386;2023-06-14T11:27:55;101573.13;;;25.67;34.65
61710;BME280;47633;51.494;5.386;2023-06-14T11:30:21;101571.47;;;25.66;34.61
61710;BME280;47633;51.494;5.386;2023-06-14T11:32:48;101576.34;;;25.71;34.59
61710;BME280;47633;51.494;5.386;2023-06-14T11:35:13;101576.34;;;25.71;34.75
61710;BME280;47633;51.494;5.386;2023-06-14T11:37:39;101581.69;;;25.71;34.53
61710;BME280;47633;51.494;5.386;2023-06-14T11:40:06;101573.69;;;25.71;34.66
61710;BME280;47633;51.494;5.386;2023-06-14T11:42:36;101572.66;;;25.72;34.52
61710;BME280;47633;51.494;5.386;2023-06-14T11:45:02;101574.34;;;25.73;34.62
61710;BME280;47633;51.494;5.386;2023-06-14T11:47:35;101574.66;;;25.70;34.29
61710;BME280;47633;51.494;5.386;2023-06-14T11:50:01;101570.84;;;25.73;34.78
61710;BME280;47633;51.494;5.386;2023-06-14T11:52:27;101572.19;;;25.77;34.68
61710;BME280;47633;51.494;5.386;2023-06-14T11:54:53;101578.09;;;25.80;34.47
61710;BME280;47633;51.494;5.386;2023-06-14T11:57:19;101568.38;;;25.79;34.64
61710;BME280;47633;51.494;5.386;2023-06-14T11:59:44;101576.22;;;25.81;34.43
61710;BME280;47633;51.494;5.386;2023-06-14T12:02:19;101571.53;;;25.75;33.87
61710;BME280;47633;51.494;5.386;2023-06-14T12:04:47;101578.22;;;25.79;33.58
61710;BME280;47633;51.494;5.386;2023-06-14T12:07:15;101579.88;;;25.80;34.02
61710;BME280;47633;51.494;5.386;2023-06-14T12:09:41;101580.56;;;25.82;33.98
61710;BME280;47633;51.494;5.386;2023-06-14T12:12:12;101568.84;;;25.75;34.02
61710;BME280;47633;51.494;5.386;2023-06-14T12:14:37;101565.34;;;25.74;34.14
61710;BME280;47633;51.494;5.386;2023-06-14T12:17:07;101576.88;;;25.75;33.97
61710;BME280;47633;51.494;5.386;2023-06-14T12:19:33;101570.22;;;25.79;33.59
61710;BME280;47633;51.494;5.386;2023-06-14T12:22:06;101574.22;;;25.83;34.43
61710;BME280;47633;51.494;5.386;2023-06-14T12:24:31;101568.91;;;25.83;34.22
61710;BME280;47633;51.494;5.386;2023-06-14T12:26:58;101571.56;;;25.83;33.86
61710;BME280;47633;51.494;5.386;2023-06-14T12:29:28;101570.06;;;25.80;34.04
61710;BME280;47633;51.494;5.386;2023-06-14T12:31:54;101574.56;;;25.80;33.98
61710;BME280;47633;51.494;5.386;2023-06-14T12:34:21;101571.22;;;25.78;34.08
61710;BME280;47633;51.494;5.386;2023-06-14T12:36:47;101578.53;;;25.76;34.07
61710;BME280;47633;51.494;5.386;2023-06-14T12:39:12;101576.88;;;25.75;34.17
61710;BME280;47633;51.494;5.386;2023-06-14T12:41:38;101578.16;;;25.70;34.10
61710;BME280;47633;51.494;5.386;2023-06-14T12:44:04;101577.19;;;25.71;34.29
61710;BME280;47633;51.494;5.386;2023-06-14T12:46:33;101573.13;;;25.67;34.30
61710;BME280;47633;51.494;5.386;2023-06-14T12:48:58;101574.00;;;25.68;34.03
61710;BME280;47633;51.494;5.386;2023-06-14T12:51:24;101574.97;;;25.67;34.16
61710;BME280;47633;51.494;5.386;2023-06-14T12:53:50;101575.44;;;25.62;34.24
61710;BME280;47633;51.494;5.386;2023-06-14T12:56:16;101579.28;;;25.60;34.59
61710;BME280;47633;51.494;5.386;2023-06-14T12:58:42;101579.44;;;25.58;34.15
61710;BME280;47633;51.494;5.386;2023-06-14T13:01:07;101581.41;;;25.56;34.14